createdAt,value
2023-02-02T00:01:33.887Z,2.1
2023-02-02T00:06:56.817Z,2.1
2023-02-02T00:12:19.473Z,2.1
2023-02-02T00:17:42.604Z,2.2
2023-02-02T00:23:05.352Z,2.3
2023-02-02T00:28:28.128Z,2.3
2023-02-02T00:33:51.434Z,2.3
2023-02-02T00:39:13.111Z,2.3
2023-02-02T00:44:35.147Z,2.3
2023-02-02T00:49:58.112Z,2.3
2023-02-02T00:55:20.436Z,2.3
2023-02-02T01:00:43.262Z,2.3
2023-02-02T01:06:05.739Z,2.3
2023-02-02T01:11:27.770Z,2.2
2023-02-02T01:16:50.610Z,2.1
2023-02-02T01:22:13.237Z,1.9
2023-02-02T01:27:35.544Z,1.8
2023-02-02T01:32:42.531Z,1.7
2023-02-02T01:37:49.369Z,1.6
2023-02-02T01:43:11.398Z,1.4
2023-02-02T01:48:19.126Z,1.3
2023-02-02T01:53:41.465Z,1.1
2023-02-02T01:59:03.222Z,0.9
2023-02-02T02:04:10.445Z,0.7
2023-02-02T02:09:32.527Z,0.6
2023-02-02T02:14:54.213Z,0.4
2023-02-02T02:20:16.369Z,0.3
2023-02-02T02:25:39.188Z,0.1
2023-02-02T02:30:45.302Z,-0.1
2023-02-02T02:36:08.514Z,-0.2
2023-02-02T02:41:30.249Z,-0.3
2023-02-02T02:46:53.322Z,-0.4
2023-02-02T02:52:00.278Z,-0.5
2023-02-02T02:57:22.801Z,-0.6
2023-02-02T03:02:45.662Z,-0.6
2023-02-02T03:08:08.397Z,-0.7
2023-02-02T03:13:15.648Z,-0.8
2023-02-02T03:18:37.815Z,-0.8
2023-02-02T03:23:45.032Z,-0.9
2023-02-02T03:28:52.598Z,-1
2023-02-02T03:33:59.824Z,-1.1
2023-02-02T03:39:22.527Z,-1.3
2023-02-02T03:44:14.556Z,-1.4
2023-02-02T03:49:37.445Z,-1.6
2023-02-02T03:55:00.154Z,-1.8
2023-02-02T04:00:22.525Z,-1.9
2023-02-02T04:05:29.418Z,-2
2023-02-02T04:10:36.149Z,-2.2
2023-02-02T04:15:43.127Z,-2.3
2023-02-02T04:21:06.294Z,-2.4
2023-02-02T04:26:29.464Z,-2.4
2023-02-02T04:31:52.162Z,-2.6
2023-02-02T04:36:59.121Z,-2.8
2023-02-02T04:42:21.242Z,-2.9
2023-02-02T04:47:44.566Z,-2.9
2023-02-02T04:53:06.941Z,-3
2023-02-02T04:57:58.318Z,-3.1
2023-02-02T05:02:36.842Z,-3.2
2023-02-02T05:08:01.223Z,-3.3
2023-02-02T05:13:08.809Z,-3.3
2023-02-02T05:18:32.047Z,-3.4
2023-02-02T05:23:38.627Z,-3.4
2023-02-02T05:29:17.384Z,-3.4
2023-02-02T05:34:55.723Z,-3.4
2023-02-02T05:40:17.800Z,-3.4
2023-02-02T05:45:25.517Z,-3.4
2023-02-02T05:50:32.724Z,-3.3
2023-02-02T05:56:10.908Z,-3.3
2023-02-02T06:01:49.465Z,-3.2
2023-02-02T06:07:28.565Z,-3.1
2023-02-02T06:13:05.381Z,-2.8
2023-02-02T06:18:44.060Z,-2.5
2023-02-02T06:24:22.237Z,-2
2023-02-02T06:29:45.215Z,-1.6
2023-02-02T06:35:25.217Z,-1.1
2023-02-02T06:41:03.282Z,-0.8
2023-02-02T06:46:38.073Z,-0.3
2023-02-02T06:52:16.424Z,0.2
2023-02-02T06:57:57.933Z,0.6
2023-02-02T07:03:36.072Z,0.9
2023-02-02T07:09:19.562Z,1.3
2023-02-02T07:16:06.395Z,1.6
2023-02-02T07:21:28.631Z,1.9
2023-02-02T07:26:51.761Z,2.1
2023-02-02T07:31:44.249Z,2.2
2023-02-02T07:36:51.853Z,3.1
2023-02-02T07:42:15.277Z,12.4
2023-02-02T07:48:04.346Z,17.2
2023-02-02T07:53:31.665Z,20.3
2023-02-02T07:59:13.439Z,28.1
2023-02-02T08:04:39.353Z,36.9
2023-02-02T08:09:45.745Z,44
2023-02-02T08:15:09.057Z,51.3
2023-02-02T08:20:48.191Z,44.6
2023-02-02T08:26:26.670Z,34.5
2023-02-02T08:31:49.862Z,38.2
2023-02-02T08:37:28.510Z,49.2
2023-02-02T08:43:06.618Z,42.7
2023-02-02T08:50:30.202Z,33.5
2023-02-02T08:56:08.702Z,37.6
2023-02-02T09:01:46.392Z,48.8
2023-02-02T09:07:25.932Z,51.6
2023-02-02T09:13:04.527Z,47
2023-02-02T09:18:45.232Z,45.8
2023-02-02T09:24:23.616Z,48.3
2023-02-02T09:30:02.503Z,49.6
2023-02-02T09:35:26.262Z,50.3
2023-02-02T09:41:06.543Z,51.3
2023-02-02T09:46:45.225Z,52.4
2023-02-02T09:52:23.632Z,53.7
2023-02-02T09:58:12.120Z,54.6
2023-02-02T10:04:06.606Z,55.7
2023-02-02T10:09:54.677Z,57.1
2023-02-02T10:15:33.795Z,52.9
2023-02-02T10:21:15.307Z,52.7
2023-02-02T10:26:38.510Z,49.9
2023-02-02T10:32:26.720Z,45.9
2023-02-02T10:38:21.040Z,53.6
2023-02-02T10:43:59.830Z,56.7
2023-02-02T10:49:38.360Z,49
2023-02-02T10:55:30.518Z,56.6
2023-02-02T11:01:09.640Z,59.5
2023-02-02T11:07:01.656Z,50
2023-02-02T11:12:40.928Z,53.7
2023-02-02T11:18:36.835Z,55.8
2023-02-02T11:23:59.372Z,55.7
2023-02-02T11:29:37.691Z,53.4
2023-02-02T11:36:58.477Z,50.1
2023-02-02T11:42:36.863Z,58.7
2023-02-02T11:48:15.025Z,59.1
2023-02-02T11:54:01.429Z,57.8
2023-02-02T11:59:40.671Z,51
2023-02-02T12:05:22.774Z,52.7
2023-02-02T12:11:00.752Z,48.6
2023-02-02T12:16:25.616Z,45.3
2023-02-02T12:22:04.491Z,40.3
2023-02-02T20:30:38.010Z,0.7
